Time;durP1;ratioP1;P1;durP2;ratioP2;P2;SDS_P1;SDS_P2;PMS_P1;PMS_P2;Temp;Humidity;BMP_temperature;BMP_pressure;BME280_temperature;BME280_humidity;BME280_pressure;Samples;Min_cycle;Max_cycle;Signal;HPM_P1;HPM_P2
2021/12/29 00:01:05;;;;;;;2.90;1.80;;;;;;;;;;5091993;28;20470;-47
2021/12/29 00:03:31;;;;;;;2.15;1.95;;;;;;;;;;5088449;28;20049;-50
2021/12/29 00:05:57;;;;;;;2.08;1.70;;;;;;;;;;5105912;28;20032;-46
2021/12/29 00:08:23;;;;;;;2.25;1.75;;;;;;;;;;5107773;28;20111;-48
2021/12/29 00:10:54;;;;;;;2.17;1.88;;;;;;;;;;5108863;28;20020;-50
2021/12/29 00:13:21;;;;;;;2.65;2.00;;;;;;;;;;5107578;28;20073;-49
2021/12/29 00:15:48;;;;;;;2.20;2.00;;;;;;;;;;5090734;28;20034;-46
2021/12/29 00:18:14;;;;;;;2.53;1.90;;;;;;;;;;5093274;28;20030;-46
2021/12/29 00:20:40;;;;;;;2.05;1.85;;;;;;;;;;5107743;28;20402;-45
2021/12/29 00:23:07;;;;;;;2.10;1.90;;;;;;;;;;5109044;28;20364;-45
2021/12/29 00:25:33;;;;;;;2.20;2.00;;;;;;;;;;5106929;28;20035;-47
2021/12/29 00:28:01;;;;;;;2.10;1.90;;;;;;;;;;5108096;28;20635;-46
2021/12/29 00:30:28;;;;;;;2.35;2.05;;;;;;;;;;5095982;28;20021;-46
2021/12/29 00:32:54;;;;;;;1.83;1.70;;;;;;;;;;5087614;28;20400;-48
2021/12/29 00:35:20;;;;;;;2.17;1.98;;;;;;;;;;5098770;28;20028;-46
2021/12/29 00:37:46;;;;;;;2.42;2.22;;;;;;;;;;5107888;28;20023;-47
2021/12/29 00:40:13;;;;;;;1.75;1.58;;;;;;;;;;5107543;28;20028;-46
2021/12/29 00:42:40;;;;;;;2.05;1.85;;;;;;;;;;5107533;28;20027;-46
2021/12/29 00:45:07;;;;;;;2.25;2.05;;;;;;;;;;5093916;28;20028;-46
2021/12/29 00:47:34;;;;;;;2.25;1.58;;;;;;;;;;5087798;28;20035;-47
2021/12/29 00:50:01;;;;;;;1.40;1.30;;;;;;;;;;5087228;28;20046;-46
2021/12/29 00:52:28;;;;;;;1.17;1.08;;;;;;;;;;5087021;28;20032;-48
2021/12/29 00:54:54;;;;;;;1.40;1.30;;;;;;;;;;5096173;28;20119;-47
2021/12/29 00:57:20;;;;;;;1.38;1.27;;;;;;;;;;5107146;28;20031;-46
2021/12/29 00:59:46;;;;;;;1.40;1.30;;;;;;;;;;5101674;28;20020;-46
2021/12/29 01:02:12;;;;;;;1.38;1.20;;;;;;;;;;5086850;28;20024;-47
2021/12/29 01:04:39;;;;;;;2.20;1.20;;;;;;;;;;5092336;28;20088;-45
2021/12/29 01:07:05;;;;;;;1.35;1.10;;;;;;;;;;5107892;28;20032;-46
2021/12/29 01:09:31;;;;;;;1.30;1.10;;;;;;;;;;5106966;28;20038;-47
2021/12/29 01:11:59;;;;;;;0.93;0.90;;;;;;;;;;5107019;28;20043;-45
2021/12/29 01:14:26;;;;;;;0.88;0.80;;;;;;;;;;5102724;28;20483;-45
2021/12/29 01:16:52;;;;;;;0.98;0.73;;;;;;;;;;5086844;28;20128;-49
2021/12/29 01:19:20;;;;;;;0.80;0.80;;;;;;;;;;5086281;28;20169;-47
2021/12/29 01:21:48;;;;;;;0.93;0.90;;;;;;;;;;5093631;28;20487;-48
2021/12/29 01:24:14;;;;;;;0.60;0.60;;;;;;;;;;5104889;28;20590;-50
2021/12/29 01:26:42;;;;;;;0.77;0.77;;;;;;;;;;5106320;28;20019;-47
2021/12/29 01:29:09;;;;;;;0.77;0.63;;;;;;;;;;5106554;28;20156;-50
2021/12/29 01:31:35;;;;;;;0.57;0.57;;;;;;;;;;5086900;28;20028;-46
2021/12/29 01:34:04;;;;;;;0.60;0.60;;;;;;;;;;5086516;28;20509;-46
2021/12/29 01:36:31;;;;;;;0.68;0.68;;;;;;;;;;5085945;28;20027;-46
2021/12/29 01:38:57;;;;;;;0.60;0.60;;;;;;;;;;5086714;28;20020;-47
2021/12/29 01:41:23;;;;;;;0.98;0.90;;;;;;;;;;5086084;28;20838;-47
2021/12/29 01:43:49;;;;;;;1.20;1.10;;;;;;;;;;5097156;28;20033;-46
2021/12/29 01:46:15;;;;;;;0.70;0.70;;;;;;;;;;5104308;28;20035;-46
2021/12/29 01:48:42;;;;;;;1.40;0.70;;;;;;;;;;5106909;28;20023;-47
2021/12/29 01:51:08;;;;;;;1.10;1.00;;;;;;;;;;5106420;28;20102;-48
2021/12/29 01:53:35;;;;;;;0.77;0.77;;;;;;;;;;5107351;28;20027;-48
2021/12/29 01:56:02;;;;;;;0.93;0.93;;;;;;;;;;5089550;28;20028;-50
2021/12/29 01:58:28;;;;;;;0.98;0.98;;;;;;;;;;5086169;28;20020;-49
2021/12/29 02:00:57;;;;;;;1.30;1.15;;;;;;;;;;5087441;28;20039;-48
2021/12/29 02:03:23;;;;;;;0.80;0.80;;;;;;;;;;5106648;28;20549;-48
2021/12/29 02:05:49;;;;;;;0.80;0.80;;;;;;;;;;5105053;28;20114;-49
2021/12/29 02:08:22;;;;;;;1.20;1.10;;;;;;;;;;5106170;28;20427;-49
2021/12/29 02:10:49;;;;;;;1.27;1.17;;;;;;;;;;5106479;28;20035;-49
2021/12/29 02:13:15;;;;;;;1.58;1.48;;;;;;;;;;5106262;28;20382;-49
2021/12/29 02:15:41;;;;;;;1.60;1.50;;;;;;;;;;5104331;28;20626;-48
2021/12/29 02:18:14;;;;;;;1.73;1.60;;;;;;;;;;5105250;28;20024;-46
2021/12/29 02:20:41;;;;;;;1.90;1.73;;;;;;;;;;5106213;28;20020;-48
2021/12/29 02:23:16;;;;;;;1.77;1.60;;;;;;;;;;5106159;28;20098;-48
2021/12/29 02:25:49;;;;;;;1.40;1.25;;;;;;;;;;5104726;28;20647;-46
2021/12/29 02:28:26;;;;;;;1.95;1.50;;;;;;;;;;5106157;28;20023;-46
2021/12/29 02:30:52;;;;;;;1.48;1.38;;;;;;;;;;5091227;28;20119;-46
2021/12/29 02:33:18;;;;;;;1.73;1.60;;;;;;;;;;5085658;28;20527;-48
2021/12/29 02:35:45;;;;;;;1.88;1.70;;;;;;;;;;5096900;28;20039;-49
2021/12/29 02:38:26;;;;;;;2.53;1.83;;;;;;;;;;5109563;28;20034;-46
2021/12/29 02:40:57;;;;;;;3.33;2.13;;;;;;;;;;5102449;28;20020;-45
2021/12/29 02:43:24;;;;;;;4.15;2.72;;;;;;;;;;5089415;28;20020;-45
2021/12/29 02:45:58;;;;;;;4.68;3.22;;;;;;;;;;5100913;28;20107;-46
2021/12/29 02:48:24;;;;;;;4.82;3.17;;;;;;;;;;5109697;28;20402;-46
2021/12/29 02:50:54;;;;;;;3.60;2.53;;;;;;;;;;5110013;28;20030;-46
2021/12/29 02:53:21;;;;;;;2.72;2.22;;;;;;;;;;5109566;28;20020;-48
2021/12/29 02:55:47;;;;;;;2.28;1.77;;;;;;;;;;5107877;28;20076;-48
2021/12/29 02:58:13;;;;;;;2.08;1.80;;;;;;;;;;5109319;28;20490;-48
2021/12/29 03:00:39;;;;;;;2.38;1.80;;;;;;;;;;5096633;28;20577;-49
2021/12/29 03:03:25;;;;;;;2.15;1.60;;;;;;;;;;5089901;28;20031;-46
2021/12/29 03:05:52;;;;;;;1.88;1.67;;;;;;;;;;5102993;28;20131;-46
2021/12/29 03:08:19;;;;;;;2.22;1.40;;;;;;;;;;5109412;28;20042;-46
2021/12/29 03:10:46;;;;;;;1.52;1.20;;;;;;;;;;5109558;28;20028;-47
2021/12/29 03:13:12;;;;;;;1.30;1.17;;;;;;;;;;5109205;28;20101;-46
2021/12/29 03:15:38;;;;;;;1.50;1.38;;;;;;;;;;5092685;28;20031;-47
2021/12/29 03:18:05;;;;;;;1.65;1.38;;;;;;;;;;5089300;28;20423;-47
2021/12/29 03:20:31;;;;;;;2.97;2.30;;;;;;;;;;5087909;28;20032;-46
2021/12/29 03:22:58;;;;;;;3.53;3.08;;;;;;;;;;5088871;28;20115;-46
2021/12/29 03:25:24;;;;;;;3.45;2.92;;;;;;;;;;5084787;28;20040;-46
2021/12/29 03:27:51;;;;;;;4.75;3.33;;;;;;;;;;5089189;28;20550;-47
2021/12/29 03:30:17;;;;;;;3.88;3.13;;;;;;;;;;5086471;28;20399;-47
2021/12/29 03:32:51;;;;;;;4.40;3.00;;;;;;;;;;5088608;28;20032;-45
2021/12/29 03:35:17;;;;;;;3.47;2.90;;;;;;;;;;5075541;28;20414;-45
2021/12/29 03:37:43;;;;;;;2.83;2.53;;;;;;;;;;5109080;28;20674;-46
2021/12/29 03:40:09;;;;;;;2.90;2.50;;;;;;;;;;5108550;28;20026;-45
2021/12/29 03:42:35;;;;;;;3.97;2.95;;;;;;;;;;5106633;28;20024;-46
2021/12/29 03:45:01;;;;;;;3.47;2.63;;;;;;;;;;5099167;28;20028;-46
2021/12/29 03:47:28;;;;;;;2.40;2.10;;;;;;;;;;5087655;28;20028;-50
2021/12/29 03:49:54;;;;;;;2.60;2.30;;;;;;;;;;5088114;28;20071;-49
2021/12/29 03:52:20;;;;;;;2.30;2.10;;;;;;;;;;5087935;28;20511;-47
2021/12/29 03:54:46;;;;;;;2.13;1.92;;;;;;;;;;5092635;28;20484;-49
2021/12/29 03:57:12;;;;;;;1.70;1.60;;;;;;;;;;5108407;28;20024;-48
2021/12/29 03:59:38;;;;;;;2.10;1.90;;;;;;;;;;5103605;28;20551;-47
2021/12/29 04:02:05;;;;;;;1.83;1.70;;;;;;;;;;5089472;28;20028;-49
2021/12/29 04:04:31;;;;;;;2.35;1.98;;;;;;;;;;5102190;28;20089;-45
2021/12/29 04:06:58;;;;;;;1.85;1.60;;;;;;;;;;5103068;28;20024;-45
2021/12/29 04:09:24;;;;;;;1.60;1.50;;;;;;;;;;5106756;28;20088;-46
2021/12/29 04:11:51;;;;;;;1.40;1.30;;;;;;;;;;5106593;28;20107;-45
2021/12/29 04:14:19;;;;;;;1.40;1.30;;;;;;;;;;5104558;28;20068;-45
2021/12/29 04:16:48;;;;;;;1.50;1.38;;;;;;;;;;5086948;28;20028;-49
2021/12/29 04:19:17;;;;;;;1.45;1.20;;;;;;;;;;5085735;28;20403;-47
2021/12/29 04:21:46;;;;;;;1.20;1.10;;;;;;;;;;5086081;28;20020;-48
2021/12/29 04:24:12;;;;;;;1.63;1.30;;;;;;;;;;5092790;28;20505;-48
2021/12/29 04:26:39;;;;;;;1.02;0.93;;;;;;;;;;5104673;28;20095;-49
2021/12/29 04:29:06;;;;;;;1.30;1.20;;;;;;;;;;5106373;28;20131;-48
2021/12/29 04:31:33;;;;;;;1.60;1.40;;;;;;;;;;5084979;28;20377;-46
2021/12/29 04:33:59;;;;;;;1.48;1.38;;;;;;;;;;5088886;28;20080;-46
2021/12/29 04:36:25;;;;;;;1.83;1.60;;;;;;;;;;5104822;28;20032;-46
2021/12/29 04:38:51;;;;;;;1.60;1.50;;;;;;;;;;5106231;28;20055;-46
2021/12/29 04:41:17;;;;;;;1.42;1.20;;;;;;;;;;5105844;28;20618;-45
2021/12/29 04:43:44;;;;;;;1.50;1.33;;;;;;;;;;5103913;28;20133;-48
2021/12/29 04:46:14;;;;;;;1.52;1.42;;;;;;;;;;5097213;28;20564;-46
2021/12/29 04:48:47;;;;;;;1.73;1.60;;;;;;;;;;5105579;28;20027;-47
2021/12/29 04:51:15;;;;;;;1.60;1.50;;;;;;;;;;5105758;28;20166;-47
2021/12/29 04:53:42;;;;;;;1.50;1.40;;;;;;;;;;5105744;28;20076;-46
2021/12/29 04:56:08;;;;;;;1.90;1.50;;;;;;;;;;5095566;28;20016;-47
2021/12/29 04:58:34;;;;;;;1.63;1.52;;;;;;;;;;5105553;28;20049;-46
2021/12/29 05:01:00;;;;;;;2.03;1.58;;;;;;;;;;5089388;28;20067;-49
2021/12/29 05:03:26;;;;;;;2.20;1.60;;;;;;;;;;5085273;28;20080;-48
2021/12/29 05:08:24;;;;;;;1.77;1.50;;;;;;;;;;5084226;28;20035;-46
2021/12/29 05:08:44;;;;;;;1.40;1.30;;;;;;;;;;5084933;28;20039;-46
2021/12/29 05:11:13;;;;;;;1.30;1.20;;;;;;;;;;5085371;28;20028;-47
2021/12/29 05:13:41;;;;;;;1.33;1.23;;;;;;;;;;5085414;28;20395;-46
2021/12/29 05:16:07;;;;;;;1.50;1.20;;;;;;;;;;5085993;28;20031;-48
2021/12/29 05:18:34;;;;;;;1.33;1.23;;;;;;;;;;5103626;28;20084;-46
2021/12/29 05:21:01;;;;;;;1.33;1.23;;;;;;;;;;5105392;28;20027;-46
2021/12/29 05:23:29;;;;;;;0.75;0.75;;;;;;;;;;5083122;28;20028;-48
2021/12/29 05:25:55;;;;;;;1.70;1.48;;;;;;;;;;5105945;28;20023;-45
2021/12/29 05:28:23;;;;;;;1.27;1.13;;;;;;;;;;5084714;28;20084;-47
2021/12/29 05:30:51;;;;;;;1.38;1.27;;;;;;;;;;5083991;28;20419;-45
2021/12/29 05:33:18;;;;;;;1.42;1.33;;;;;;;;;;5085739;28;20029;-46
2021/12/29 05:35:45;;;;;;;1.85;1.42;;;;;;;;;;5099827;28;20089;-46
2021/12/29 05:38:11;;;;;;;1.98;1.38;;;;;;;;;;5084461;28;20031;-46
2021/12/29 05:40:38;;;;;;;1.77;1.58;;;;;;;;;;5085112;28;20020;-46
2021/12/29 05:43:05;;;;;;;2.75;1.83;;;;;;;;;;5085469;28;20028;-47
2021/12/29 05:45:31;;;;;;;3.30;1.95;;;;;;;;;;5087069;28;20039;-46
2021/12/29 05:47:58;;;;;;;2.42;1.67;;;;;;;;;;5099882;28;20402;-46
2021/12/29 05:50:26;;;;;;;1.83;1.60;;;;;;;;;;5104765;28;20444;-46
2021/12/29 05:52:52;;;;;;;3.60;2.45;;;;;;;;;;5105005;28;20028;-45
2021/12/29 05:55:18;;;;;;;2.05;1.85;;;;;;;;;;5104517;28;20023;-45
2021/12/29 05:57:44;;;;;;;1.92;1.60;;;;;;;;;;5103278;28;20031;-46
2021/12/29 06:00:12;;;;;;;1.67;1.45;;;;;;;;;;5096074;28;20020;-45
2021/12/29 06:02:38;;;;;;;1.70;1.38;;;;;;;;;;5105021;28;20051;-46
2021/12/29 06:05:04;;;;;;;1.27;1.17;;;;;;;;;;5084650;28;20060;-47
2021/12/29 06:07:30;;;;;;;1.20;1.10;;;;;;;;;;5084238;28;20119;-46
2021/12/29 06:09:56;;;;;;;0.95;0.85;;;;;;;;;;5084681;28;20142;-50
2021/12/29 06:12:22;;;;;;;1.00;0.90;;;;;;;;;;5086775;28;20107;-45
2021/12/29 06:14:48;;;;;;;0.80;0.80;;;;;;;;;;5092626;28;20066;-47
2021/12/29 06:17:15;;;;;;;0.90;0.90;;;;;;;;;;5088192;28;20028;-45
2021/12/29 06:19:41;;;;;;;1.27;1.17;;;;;;;;;;5088521;28;20530;-50
2021/12/29 06:22:11;;;;;;;2.25;1.73;;;;;;;;;;5089198;28;20028;-49
2021/12/29 06:24:41;;;;;;;3.53;2.22;;;;;;;;;;5096972;28;20035;-48
2021/12/29 06:27:07;;;;;;;3.65;2.60;;;;;;;;;;5108465;28;20041;-47
2021/12/29 06:29:33;;;;;;;2.92;2.30;;;;;;;;;;5104305;28;20024;-46
2021/12/29 06:32:00;;;;;;;2.47;2.20;;;;;;;;;;5088296;28;20035;-45
2021/12/29 06:34:27;;;;;;;2.33;1.85;;;;;;;;;;5086104;28;20034;-46
2021/12/29 06:36:54;;;;;;;2.17;1.85;;;;;;;;;;5088078;28;20457;-49
2021/12/29 06:39:21;;;;;;;4.03;2.25;;;;;;;;;;5088009;28;20020;-46
2021/12/29 06:41:47;;;;;;;2.38;2.03;;;;;;;;;;5087018;28;20031;-47
2021/12/29 06:44:13;;;;;;;2.08;1.60;;;;;;;;;;5087748;28;20418;-46
2021/12/29 06:46:39;;;;;;;3.22;2.10;;;;;;;;;;5104360;28;20036;-44
2021/12/29 06:49:05;;;;;;;4.68;3.08;;;;;;;;;;5109003;28;20405;-47
2021/12/29 06:51:31;;;;;;;3.58;2.72;;;;;;;;;;5107973;28;20130;-48
2021/12/29 06:53:57;;;;;;;3.42;2.22;;;;;;;;;;5108240;28;20102;-46
2021/12/29 06:56:23;;;;;;;2.03;1.52;;;;;;;;;;5090539;28;20111;-46
2021/12/29 06:58:49;;;;;;;1.88;1.60;;;;;;;;;;5087591;28;20031;-47
2021/12/29 07:01:16;;;;;;;1.27;1.15;;;;;;;;;;5086607;28;20092;-49
2021/12/29 07:03:43;;;;;;;1.20;1.00;;;;;;;;;;5087810;28;20471;-45
2021/12/29 07:06:10;;;;;;;0.90;0.82;;;;;;;;;;5100021;28;20434;-44
2021/12/29 07:08:37;;;;;;;0.60;0.60;;;;;;;;;;5108248;28;20059;-46
2021/12/29 07:11:03;;;;;;;0.88;0.75;;;;;;;;;;5107614;28;20410;-45
2021/12/29 07:13:31;;;;;;;0.85;0.70;;;;;;;;;;5107404;28;20440;-45
2021/12/29 07:15:56;;;;;;;0.55;0.55;;;;;;;;;;5099510;28;20135;-47
2021/12/29 07:18:23;;;;;;;0.52;0.52;;;;;;;;;;5107598;28;20094;-46
2021/12/29 07:20:50;;;;;;;0.82;0.55;;;;;;;;;;5089655;28;20039;-47
2021/12/29 07:23:17;;;;;;;0.63;0.63;;;;;;;;;;5086117;28;20099;-49
2021/12/29 07:25:43;;;;;;;1.48;1.38;;;;;;;;;;5091721;28;20384;-47
2021/12/29 07:28:09;;;;;;;1.45;1.20;;;;;;;;;;5107414;28;20072;-46
2021/12/29 07:30:35;;;;;;;2.80;1.70;;;;;;;;;;5092504;28;20028;-49
2021/12/29 07:33:01;;;;;;;2.13;1.90;;;;;;;;;;5099237;28;20119;-47
2021/12/29 07:35:28;;;;;;;2.63;2.35;;;;;;;;;;5108162;28;20020;-47
2021/12/29 07:37:54;;;;;;;2.15;1.95;;;;;;;;;;5108941;28;20020;-48
2021/12/29 07:40:20;;;;;;;1.98;1.77;;;;;;;;;;5108915;28;20032;-49
2021/12/29 07:42:46;;;;;;;2.20;1.83;;;;;;;;;;5095877;28;20057;-50
2021/12/29 07:45:13;;;;;;;1.85;1.70;;;;;;;;;;5077192;28;20585;-48
2021/12/29 07:47:46;;;;;;;2.03;1.80;;;;;;;;;;5105552;28;20076;-50
2021/12/29 07:50:13;;;;;;;2.15;1.90;;;;;;;;;;5088353;28;20060;-46
2021/12/29 07:52:39;;;;;;;1.70;1.60;;;;;;;;;;5087666;28;20028;-45
2021/12/29 07:55:05;;;;;;;3.15;2.17;;;;;;;;;;5092389;28;20020;-47
2021/12/29 07:57:31;;;;;;;3.38;2.70;;;;;;;;;;5088086;28;20199;-46
2021/12/29 07:59:57;;;;;;;4.10;2.83;;;;;;;;;;5087660;28;20020;-46
2021/12/29 08:02:27;;;;;;;4.28;2.95;;;;;;;;;;5085682;28;20682;-48
2021/12/29 08:04:58;;;;;;;3.33;2.60;;;;;;;;;;5087926;28;20415;-49
2021/12/29 08:07:25;;;;;;;2.83;2.53;;;;;;;;;;5094969;28;20522;-46
2021/12/29 08:09:51;;;;;;;2.67;2.40;;;;;;;;;;5108721;28;20466;-47
2021/12/29 08:12:17;;;;;;;3.03;2.53;;;;;;;;;;5107753;28;20106;-47
2021/12/29 08:14:45;;;;;;;3.17;2.85;;;;;;;;;;5102833;28;20024;-48
2021/12/29 08:17:12;;;;;;;3.30;2.92;;;;;;;;;;5091999;28;20031;-48
2021/12/29 08:19:38;;;;;;;3.83;2.80;;;;;;;;;;5097292;28;20028;-50
2021/12/29 08:22:05;;;;;;;4.03;3.35;;;;;;;;;;5108084;28;20047;-49
2021/12/29 08:24:31;;;;;;;4.45;3.40;;;;;;;;;;5107514;28;20683;-49
2021/12/29 08:26:57;;;;;;;4.80;3.75;;;;;;;;;;5106346;28;20034;-47
2021/12/29 08:29:23;;;;;;;4.35;3.63;;;;;;;;;;5100617;28;20032;-50
2021/12/29 08:31:49;;;;;;;3.22;2.80;;;;;;;;;;5087286;28;20463;-47
2021/12/29 08:34:16;;;;;;;2.88;2.55;;;;;;;;;;5083784;28;20035;-50
2021/12/29 08:36:42;;;;;;;2.75;2.47;;;;;;;;;;5085166;28;20022;-50
2021/12/29 08:39:08;;;;;;;3.97;2.88;;;;;;;;;;5092963;28;20020;-50
2021/12/29 08:41:34;;;;;;;3.47;2.92;;;;;;;;;;5087385;28;20020;-45
2021/12/29 08:44:00;;;;;;;2.67;2.38;;;;;;;;;;5085930;28;20024;-46
2021/12/29 08:46:28;;;;;;;2.97;2.40;;;;;;;;;;5087672;28;20043;-48
2021/12/29 08:48:55;;;;;;;2.97;2.63;;;;;;;;;;5095226;28;20093;-50
2021/12/29 08:51:21;;;;;;;2.47;2.28;;;;;;;;;;5100337;28;20088;-48
2021/12/29 08:53:47;;;;;;;1.92;1.73;;;;;;;;;;5095261;28;20106;-46
2021/12/29 08:56:16;;;;;;;2.67;2.35;;;;;;;;;;5087641;28;20056;-50
2021/12/29 08:58:43;;;;;;;2.28;2.08;;;;;;;;;;5088101;28;20091;-50
2021/12/29 09:01:09;;;;;;;2.13;1.73;;;;;;;;;;5089719;28;20050;-50
2021/12/29 09:03:36;;;;;;;1.85;1.55;;;;;;;;;;5107825;28;20066;-47
2021/12/29 09:06:02;;;;;;;1.40;1.30;;;;;;;;;;5086471;28;20114;-47
2021/12/29 09:08:28;;;;;;;1.35;1.25;;;;;;;;;;5090199;28;20083;-48
2021/12/29 09:10:54;;;;;;;1.30;1.20;;;;;;;;;;5086345;28;20028;-46
2021/12/29 09:13:22;;;;;;;1.10;1.00;;;;;;;;;;5083807;28;20048;-48
2021/12/29 09:15:56;;;;;;;1.30;1.02;;;;;;;;;;5086406;28;20031;-48
2021/12/29 09:18:23;;;;;;;1.25;1.15;;;;;;;;;;5099812;28;20024;-50
2021/12/29 09:20:49;;;;;;;1.88;1.50;;;;;;;;;;5092597;28;20028;-47
2021/12/29 09:23:16;;;;;;;1.80;1.52;;;;;;;;;;5086971;28;20043;-49
2021/12/29 09:25:43;;;;;;;2.85;1.95;;;;;;;;;;5087036;28;20070;-50
2021/12/29 09:28:11;;;;;;;2.53;1.88;;;;;;;;;;5095132;28;20081;-48
2021/12/29 09:30:38;;;;;;;1.98;1.58;;;;;;;;;;5081197;28;20024;-46
2021/12/29 09:33:05;;;;;;;2.45;1.92;;;;;;;;;;5101428;28;20093;-47
2021/12/29 09:35:31;;;;;;;2.15;1.80;;;;;;;;;;5098420;28;20028;-47
2021/12/29 09:37:57;;;;;;;1.75;1.40;;;;;;;;;;5103256;28;20028;-47
2021/12/29 09:40:24;;;;;;;1.40;1.20;;;;;;;;;;5095560;28;20027;-46
2021/12/29 09:42:52;;;;;;;1.83;1.50;;;;;;;;;;5094453;28;20110;-47
2021/12/29 09:45:18;;;;;;;1.48;1.10;;;;;;;;;;5067942;28;20036;-46
2021/12/29 09:47:45;;;;;;;1.45;1.08;;;;;;;;;;5086349;28;20126;-46
2021/12/29 09:50:12;;;;;;;2.05;1.52;;;;;;;;;;5087015;28;20078;-45
2021/12/29 09:52:39;;;;;;;1.63;1.50;;;;;;;;;;5086940;28;20028;-46
2021/12/29 09:55:07;;;;;;;2.60;1.70;;;;;;;;;;5090534;28;20527;-48
2021/12/29 09:57:33;;;;;;;2.10;1.80;;;;;;;;;;5084625;28;20046;-46
2021/12/29 09:59:59;;;;;;;1.75;1.52;;;;;;;;;;5086256;28;20035;-47
2021/12/29 10:02:26;;;;;;;1.85;1.33;;;;;;;;;;5089750;28;20523;-46
2021/12/29 10:04:52;;;;;;;1.10;1.00;;;;;;;;;;5097971;28;20408;-47
2021/12/29 10:07:20;;;;;;;1.40;1.25;;;;;;;;;;5104790;28;20082;-45
2021/12/29 10:09:46;;;;;;;1.35;1.05;;;;;;;;;;5094391;28;20024;-45
2021/12/29 10:12:19;;;;;;;1.60;1.35;;;;;;;;;;5083510;28;20044;-46
2021/12/29 10:15:05;;;;;;;2.25;1.88;;;;;;;;;;5079929;28;20017;-45
2021/12/29 10:17:31;;;;;;;3.35;1.45;;;;;;;;;;5066250;28;20107;-46
2021/12/29 10:20:05;;;;;;;2.40;1.75;;;;;;;;;;5074889;28;20020;-45
2021/12/29 10:22:32;;;;;;;2.03;1.83;;;;;;;;;;5084986;28;20559;-49
2021/12/29 10:25:07;;;;;;;2.60;1.83;;;;;;;;;;5071461;28;20038;-46
2021/12/29 10:27:34;;;;;;;2.20;1.90;;;;;;;;;;5085288;28;20040;-47
2021/12/29 10:30:02;;;;;;;2.88;2.08;;;;;;;;;;5086616;28;20024;-48
2021/12/29 10:32:28;;;;;;;3.22;2.30;;;;;;;;;;5067706;28;20036;-49
2021/12/29 10:34:54;;;;;;;2.50;2.03;;;;;;;;;;5086548;28;20016;-46
2021/12/29 10:37:23;;;;;;;6.35;3.72;;;;;;;;;;5072296;28;20042;-50
2021/12/29 10:39:51;;;;;;;8.20;5.07;;;;;;;;;;5078685;28;20013;-47
2021/12/29 10:42:21;;;;;;;7.13;4.88;;;;;;;;;;5086251;28;20057;-46
2021/12/29 10:44:49;;;;;;;6.15;4.10;;;;;;;;;;5083379;28;20097;-49
2021/12/29 10:47:25;;;;;;;3.92;2.88;;;;;;;;;;5084974;28;20028;-50
2021/12/29 10:49:54;;;;;;;2.50;2.00;;;;;;;;;;5082351;28;20436;-49
2021/12/29 10:52:38;;;;;;;2.50;1.65;;;;;;;;;;5085117;28;20165;-49
2021/12/29 10:55:06;;;;;;;1.25;1.15;;;;;;;;;;5079566;28;20028;-49
2021/12/29 10:57:32;;;;;;;1.40;1.30;;;;;;;;;;5080836;28;20024;-49
2021/12/29 10:59:59;;;;;;;1.70;1.33;;;;;;;;;;5093051;28;20028;-50
2021/12/29 11:02:30;;;;;;;1.33;1.20;;;;;;;;;;5087530;28;20028;-48
2021/12/29 11:04:57;;;;;;;1.38;1.20;;;;;;;;;;5087823;28;20454;-50
2021/12/29 11:07:25;;;;;;;1.42;1.10;;;;;;;;;;5090564;28;20113;-49
2021/12/29 11:09:51;;;;;;;0.85;0.80;;;;;;;;;;5087998;28;20032;-49
2021/12/29 11:12:18;;;;;;;1.88;0.82;;;;;;;;;;5086985;28;20031;-50
2021/12/29 11:14:44;;;;;;;0.93;0.70;;;;;;;;;;5088430;28;20133;-48
2021/12/29 11:17:12;;;;;;;1.25;0.80;;;;;;;;;;5072318;28;20020;-50
2021/12/29 11:19:39;;;;;;;14.38;6.53;;;;;;;;;;5088151;28;20028;-48
2021/12/29 11:22:15;;;;;;;11.30;5.68;;;;;;;;;;5087851;28;20033;-45
2021/12/29 11:24:43;;;;;;;9.27;5.70;;;;;;;;;;5086367;28;20028;-45
2021/12/29 11:27:10;;;;;;;8.15;6.18;;;;;;;;;;5079571;28;20826;-47
2021/12/29 11:29:47;;;;;;;7.70;5.90;;;;;;;;;;5084106;28;20458;-47
2021/12/29 11:32:18;;;;;;;9.63;6.88;;;;;;;;;;5090647;28;20039;-46
2021/12/29 11:34:44;;;;;;;9.15;6.70;;;;;;;;;;5107705;28;20038;-48
2021/12/29 11:37:14;;;;;;;7.78;5.20;;;;;;;;;;5107547;28;20030;-48
2021/12/29 11:39:42;;;;;;;5.82;4.75;;;;;;;;;;5098626;28;21639;-47
2021/12/29 11:42:09;;;;;;;8.55;6.00;;;;;;;;;;5080656;28;20035;-46
2021/12/29 11:44:35;;;;;;;8.40;5.80;;;;;;;;;;5086878;28;20024;-47
2021/12/29 11:47:02;;;;;;;7.53;5.20;;;;;;;;;;5087581;28;20055;-46
2021/12/29 11:49:29;;;;;;;6.40;4.80;;;;;;;;;;5098888;28;20037;-46
2021/12/29 11:52:03;;;;;;;6.03;4.43;;;;;;;;;;5095296;28;20106;-49
2021/12/29 11:54:59;;;;;;;5.30;4.32;;;;;;;;;;5103214;28;20067;-48
2021/12/29 11:57:26;;;;;;;4.00;3.47;;;;;;;;;;5071099;28;20040;-46
2021/12/29 11:59:53;;;;;;;3.47;3.15;;;;;;;;;;5095284;28;20028;-46
2021/12/29 12:02:26;;;;;;;3.22;2.90;;;;;;;;;;5086440;28;20402;-49
2021/12/29 12:05:04;;;;;;;5.40;4.25;;;;;;;;;;5088096;28;20449;-46
2021/12/29 12:07:31;;;;;;;3.42;3.13;;;;;;;;;;5087895;28;20055;-47
2021/12/29 12:10:01;;;;;;;5.45;4.10;;;;;;;;;;5086781;28;20036;-47
2021/12/29 12:12:34;;;;;;;3.58;3.03;;;;;;;;;;5086994;28;20028;-47
2021/12/29 12:15:00;;;;;;;3.38;3.08;;;;;;;;;;5087524;28;20518;-45
2021/12/29 12:17:28;;;;;;;3.20;2.78;;;;;;;;;;5085412;28;20034;-45
2021/12/29 12:20:02;;;;;;;2.60;2.38;;;;;;;;;;5096969;28;20028;-46
2021/12/29 12:22:29;;;;;;;3.45;2.65;;;;;;;;;;5091070;28;20034;-46
2021/12/29 12:24:55;;;;;;;5.05;3.28;;;;;;;;;;5097421;28;20110;-46
2021/12/29 12:27:41;;;;;;;4.57;4.15;;;;;;;;;;5093108;28;20028;-45
2021/12/29 12:30:10;;;;;;;4.95;4.32;;;;;;;;;;5087552;28;20032;-45
2021/12/29 12:33:05;;;;;;;3.90;3.33;;;;;;;;;;5079677;28;20016;-46
2021/12/29 12:35:36;;;;;;;3.00;2.70;;;;;;;;;;5079093;28;20067;-49
2021/12/29 12:38:22;;;;;;;3.10;2.78;;;;;;;;;;5106633;28;20028;-50
2021/12/29 12:41:00;;;;;;;3.03;2.65;;;;;;;;;;5086606;28;20030;-49
2021/12/29 12:43:26;;;;;;;2.30;2.10;;;;;;;;;;5097352;28;20028;-48
2021/12/29 12:45:52;;;;;;;2.30;2.10;;;;;;;;;;5086624;28;20069;-46
2021/12/29 12:48:22;;;;;;;2.30;2.10;;;;;;;;;;5086340;28;20157;-47
2021/12/29 12:50:48;;;;;;;2.20;2.00;;;;;;;;;;5086600;28;20050;-48
2021/12/29 12:53:16;;;;;;;2.20;2.00;;;;;;;;;;5086679;28;20035;-48
2021/12/29 12:55:50;;;;;;;10.27;4.90;;;;;;;;;;5085877;28;20056;-46
2021/12/29 12:58:17;;;;;;;15.07;6.38;;;;;;;;;;5087815;28;20035;-48
2021/12/29 13:01:13;;;;;;;15.05;6.90;;;;;;;;;;5106389;28;20030;-48
2021/12/29 13:03:39;;;;;;;11.48;7.32;;;;;;;;;;5061406;28;20561;-48
2021/12/29 13:06:10;;;;;;;9.45;6.80;;;;;;;;;;5081703;28;20028;-46
2021/12/29 13:08:41;;;;;;;5.60;4.70;;;;;;;;;;5095296;28;20036;-47
2021/12/29 13:11:09;;;;;;;5.72;3.85;;;;;;;;;;5090537;28;20036;-46
2021/12/29 13:13:37;;;;;;;4.20;3.80;;;;;;;;;;5085257;28;20529;-46
2021/12/29 13:16:03;;;;;;;3.78;3.38;;;;;;;;;;5087261;28;20656;-46
2021/12/29 13:18:29;;;;;;;2.70;2.50;;;;;;;;;;5084225;28;20772;-48
2021/12/29 13:21:05;;;;;;;2.65;2.30;;;;;;;;;;5085536;28;20032;-48
2021/12/29 13:23:31;;;;;;;4.38;2.63;;;;;;;;;;5092404;28;20038;-49
2021/12/29 13:25:58;;;;;;;2.30;2.10;;;;;;;;;;5100987;28;20028;-46
2021/12/29 13:28:26;;;;;;;2.08;1.88;;;;;;;;;;5082942;28;20081;-45
2021/12/29 13:30:55;;;;;;;1.63;1.52;;;;;;;;;;5084344;28;20411;-45
2021/12/29 13:33:27;;;;;;;1.60;1.50;;;;;;;;;;5084023;28;20059;-46
2021/12/29 13:35:55;;;;;;;1.50;1.40;;;;;;;;;;5096033;28;20019;-45
2021/12/29 13:38:21;;;;;;;1.35;1.25;;;;;;;;;;5084107;28;20024;-48
2021/12/29 13:40:49;;;;;;;1.42;1.02;;;;;;;;;;5065890;28;20068;-46
2021/12/29 13:43:20;;;;;;;1.38;1.27;;;;;;;;;;5084042;28;20375;-47
2021/12/29 13:45:53;;;;;;;1.20;1.10;;;;;;;;;;5065705;28;20111;-47
2021/12/29 13:48:21;;;;;;;1.05;0.93;;;;;;;;;;5083840;28;20482;-49
2021/12/29 13:51:07;;;;;;;1.67;1.30;;;;;;;;;;5084757;28;20031;-45
2021/12/29 13:53:34;;;;;;;1.38;1.00;;;;;;;;;;5089943;28;20043;-45
2021/12/29 13:56:06;;;;;;;1.58;1.10;;;;;;;;;;5104319;28;20068;-46
2021/12/29 13:58:32;;;;;;;1.38;1.27;;;;;;;;;;5083324;28;20107;-47
2021/12/29 14:00:58;;;;;;;1.20;1.10;;;;;;;;;;5083912;28;20502;-46
2021/12/29 14:03:24;;;;;;;1.67;1.10;;;;;;;;;;5078152;28;20092;-46
2021/12/29 14:05:50;;;;;;;1.55;1.45;;;;;;;;;;5104366;28;20019;-46
2021/12/29 14:08:18;;;;;;;1.02;1.00;;;;;;;;;;5102262;28;20065;-47
2021/12/29 14:10:45;;;;;;;1.23;1.10;;;;;;;;;;5104892;28;20031;-47
2021/12/29 14:13:18;;;;;;;1.00;0.90;;;;;;;;;;5086095;28;20032;-47
2021/12/29 14:15:45;;;;;;;1.20;1.10;;;;;;;;;;5084275;28;20032;-46
2021/12/29 14:18:14;;;;;;;1.02;0.90;;;;;;;;;;5072574;28;20273;-45
2021/12/29 14:20:40;;;;;;;1.20;1.10;;;;;;;;;;5104760;28;20027;-46
2021/12/29 14:23:07;;;;;;;1.42;1.10;;;;;;;;;;5092821;28;20664;-47
2021/12/29 14:25:35;;;;;;;1.20;1.10;;;;;;;;;;5083629;28;20363;-45
2021/12/29 14:28:01;;;;;;;1.48;1.13;;;;;;;;;;5082797;28;20050;-46
2021/12/29 14:30:27;;;;;;;1.10;1.00;;;;;;;;;;5083580;28;20046;-48
2021/12/29 14:33:01;;;;;;;1.17;1.02;;;;;;;;;;5067074;28;20042;-48
2021/12/29 14:35:29;;;;;;;1.58;1.17;;;;;;;;;;5087188;28;20048;-47
2021/12/29 14:37:55;;;;;;;1.10;1.00;;;;;;;;;;5086928;28;20028;-47
2021/12/29 14:40:26;;;;;;;1.35;1.25;;;;;;;;;;5107723;28;20065;-47
2021/12/29 14:42:52;;;;;;;1.70;1.33;;;;;;;;;;5074203;28;20043;-49
2021/12/29 14:45:18;;;;;;;1.30;1.20;;;;;;;;;;5087147;28;20024;-46
2021/12/29 14:47:46;;;;;;;1.20;1.10;;;;;;;;;;5087257;28;20032;-46